sensor_id;sensor_type;location;lat;lon;timestamp;temperature;humidity
82836;DHT22;72587;50.746;8.246;2024-03-02T00:00:18;2.40;99.90
82836;DHT22;72587;50.746;8.246;2024-03-02T00:02:47;2.40;99.90
82836;DHT22;72587;50.746;8.246;2024-03-02T00:05:15;2.40;99.90
82836;DHT22;72587;50.746;8.246;2024-03-02T00:07:42;2.40;99.90
82836;DHT22;72587;50.746;8.246;2024-03-02T00:10:09;2.50;99.90
82836;DHT22;72587;50.746;8.246;2024-03-02T00:12:39;2.50;99.90
82836;DHT22;72587;50.746;8.246;2024-03-02T00:17:55;2.50;99.90
82836;DHT22;72587;50.746;8.246;2024-03-02T00:20:24;2.40;99.90
82836;DHT22;72587;50.746;8.246;2024-03-02T00:23:03;2.30;99.90
82836;DHT22;72587;50.746;8.246;2024-03-02T00:25:41;2.30;99.90
82836;DHT22;72587;50.746;8.246;2024-03-02T00:28:19;2.20;99.90
82836;DHT22;72587;50.746;8.246;2024-03-02T00:31:07;2.20;99.90
82836;DHT22;72587;50.746;8.246;2024-03-02T00:36:04;2.30;99.90
82836;DHT22;72587;50.746;8.246;2024-03-02T00:38:31;2.30;99.90
82836;DHT22;72587;50.746;8.246;2024-03-02T00:41:04;2.30;99.90
82836;DHT22;72587;50.746;8.246;2024-03-02T00:43:42;2.40;99.90
82836;DHT22;72587;50.746;8.246;2024-03-02T00:46:18;2.30;99.90
82836;DHT22;72587;50.746;8.246;2024-03-02T00:48:55;2.20;99.90
82836;DHT22;72587;50.746;8.246;2024-03-02T00:51:25;2.10;99.90
82836;DHT22;72587;50.746;8.246;2024-03-02T00:53:53;2.10;99.90
82836;DHT22;72587;50.746;8.246;2024-03-02T00:56:21;2.10;99.90
82836;DHT22;72587;50.746;8.246;2024-03-02T00:58:47;2.20;99.90
82836;DHT22;72587;50.746;8.246;2024-03-02T01:01:12;2.30;99.90
82836;DHT22;72587;50.746;8.246;2024-03-02T01:03:38;2.20;99.90
82836;DHT22;72587;50.746;8.246;2024-03-02T01:06:04;2.20;99.90
82836;DHT22;72587;50.746;8.246;2024-03-02T01:08:30;2.20;99.90
82836;DHT22;72587;50.746;8.246;2024-03-02T01:10:55;2.20;99.90
82836;DHT22;72587;50.746;8.246;2024-03-02T01:13:22;2.30;99.90
82836;DHT22;72587;50.746;8.246;2024-03-02T01:15:49;2.20;99.90
82836;DHT22;72587;50.746;8.246;2024-03-02T01:18:14;2.20;99.90
82836;DHT22;72587;50.746;8.246;2024-03-02T01:20:40;2.20;99.90
82836;DHT22;72587;50.746;8.246;2024-03-02T01:23:06;2.20;99.90
82836;DHT22;72587;50.746;8.246;2024-03-02T01:25:31;2.20;99.90
82836;DHT22;72587;50.746;8.246;2024-03-02T01:27:57;2.20;99.90
82836;DHT22;72587;50.746;8.246;2024-03-02T01:30:22;2.20;99.90
82836;DHT22;72587;50.746;8.246;2024-03-02T01:32:48;2.30;99.90
82836;DHT22;72587;50.746;8.246;2024-03-02T01:35:14;2.20;99.90
82836;DHT22;72587;50.746;8.246;2024-03-02T01:37:40;2.20;99.90
82836;DHT22;72587;50.746;8.246;2024-03-02T01:40:07;2.20;99.90
82836;DHT22;72587;50.746;8.246;2024-03-02T01:42:38;2.20;99.90
82836;DHT22;72587;50.746;8.246;2024-03-02T01:45:08;2.20;99.90
82836;DHT22;72587;50.746;8.246;2024-03-02T01:47:34;2.20;99.90
82836;DHT22;72587;50.746;8.246;2024-03-02T01:50:00;2.20;99.90
82836;DHT22;72587;50.746;8.246;2024-03-02T01:52:26;2.20;99.90
82836;DHT22;72587;50.746;8.246;2024-03-02T01:54:51;2.20;99.90
82836;DHT22;72587;50.746;8.246;2024-03-02T01:57:18;2.10;99.90
82836;DHT22;72587;50.746;8.246;2024-03-02T01:59:43;2.10;99.90
82836;DHT22;72587;50.746;8.246;2024-03-02T02:02:09;2.10;99.90
82836;DHT22;72587;50.746;8.246;2024-03-02T02:04:35;2.10;99.90
82836;DHT22;72587;50.746;8.246;2024-03-02T02:07:01;2.10;99.90
82836;DHT22;72587;50.746;8.246;2024-03-02T02:09:26;2.20;99.90
82836;DHT22;72587;50.746;8.246;2024-03-02T02:11:52;2.20;99.90
82836;DHT22;72587;50.746;8.246;2024-03-02T02:14:18;2.20;99.90
82836;DHT22;72587;50.746;8.246;2024-03-02T02:16:44;2.30;99.90
82836;DHT22;72587;50.746;8.246;2024-03-02T02:19:09;2.30;99.90
82836;DHT22;72587;50.746;8.246;2024-03-02T02:21:35;2.20;99.90
82836;DHT22;72587;50.746;8.246;2024-03-02T02:24:01;2.20;99.90
82836;DHT22;72587;50.746;8.246;2024-03-02T02:26:29;2.10;99.90
82836;DHT22;72587;50.746;8.246;2024-03-02T02:28:55;2.10;99.90
82836;DHT22;72587;50.746;8.246;2024-03-02T02:31:20;2.00;99.90
82836;DHT22;72587;50.746;8.246;2024-03-02T02:33:46;2.00;99.90
82836;DHT22;72587;50.746;8.246;2024-03-02T02:36:11;2.00;99.90
82836;DHT22;72587;50.746;8.246;2024-03-02T02:38:40;2.10;99.90
82836;DHT22;72587;50.746;8.246;2024-03-02T02:41:08;2.10;99.90
82836;DHT22;72587;50.746;8.246;2024-03-02T02:43:34;2.10;99.90
82836;DHT22;72587;50.746;8.246;2024-03-02T02:45:59;2.10;99.90
82836;DHT22;72587;50.746;8.246;2024-03-02T02:48:25;2.10;99.90
82836;DHT22;72587;50.746;8.246;2024-03-02T02:50:50;2.20;99.90
82836;DHT22;72587;50.746;8.246;2024-03-02T02:53:16;2.20;99.90
82836;DHT22;72587;50.746;8.246;2024-03-02T02:55:42;2.20;99.90
82836;DHT22;72587;50.746;8.246;2024-03-02T02:58:09;2.20;99.90
82836;DHT22;72587;50.746;8.246;2024-03-02T03:00:34;2.20;99.90
82836;DHT22;72587;50.746;8.246;2024-03-02T03:03:02;2.20;99.90
82836;DHT22;72587;50.746;8.246;2024-03-02T03:05:27;2.30;99.90
82836;DHT22;72587;50.746;8.246;2024-03-02T03:07:53;2.30;99.90
82836;DHT22;72587;50.746;8.246;2024-03-02T03:10:19;2.20;99.90
82836;DHT22;72587;50.746;8.246;2024-03-02T03:12:47;2.20;99.90
82836;DHT22;72587;50.746;8.246;2024-03-02T03:15:13;2.20;99.90
82836;DHT22;72587;50.746;8.246;2024-03-02T03:17:39;2.10;99.90
82836;DHT22;72587;50.746;8.246;2024-03-02T03:20:06;2.10;99.90
82836;DHT22;72587;50.746;8.246;2024-03-02T03:22:35;2.10;99.90
82836;DHT22;72587;50.746;8.246;2024-03-02T03:25:01;2.00;99.90
82836;DHT22;72587;50.746;8.246;2024-03-02T03:27:27;2.00;99.90
82836;DHT22;72587;50.746;8.246;2024-03-02T03:29:52;2.00;99.90
82836;DHT22;72587;50.746;8.246;2024-03-02T03:32:18;2.00;99.90
82836;DHT22;72587;50.746;8.246;2024-03-02T03:34:43;2.00;99.90
82836;DHT22;72587;50.746;8.246;2024-03-02T03:37:09;2.10;99.90
82836;DHT22;72587;50.746;8.246;2024-03-02T03:39:35;2.00;99.90
82836;DHT22;72587;50.746;8.246;2024-03-02T03:42:01;2.00;99.90
82836;DHT22;72587;50.746;8.246;2024-03-02T03:44:27;1.90;99.90
82836;DHT22;72587;50.746;8.246;2024-03-02T03:46:52;1.80;99.90
82836;DHT22;72587;50.746;8.246;2024-03-02T03:49:18;1.80;99.90
82836;DHT22;72587;50.746;8.246;2024-03-02T03:51:43;1.80;99.90
82836;DHT22;72587;50.746;8.246;2024-03-02T03:54:09;1.80;99.90
82836;DHT22;72587;50.746;8.246;2024-03-02T03:56:36;1.90;99.90
82836;DHT22;72587;50.746;8.246;2024-03-02T03:59:02;1.80;99.90
82836;DHT22;72587;50.746;8.246;2024-03-02T04:01:27;1.80;99.90
82836;DHT22;72587;50.746;8.246;2024-03-02T04:03:53;1.70;99.90
82836;DHT22;72587;50.746;8.246;2024-03-02T04:06:19;1.60;99.90
82836;DHT22;72587;50.746;8.246;2024-03-02T04:08:44;1.60;99.90
82836;DHT22;72587;50.746;8.246;2024-03-02T04:11:10;1.50;99.90
82836;DHT22;72587;50.746;8.246;2024-03-02T04:13:35;1.50;99.90
82836;DHT22;72587;50.746;8.246;2024-03-02T04:16:01;1.50;99.90
82836;DHT22;72587;50.746;8.246;2024-03-02T04:18:26;1.30;99.90
82836;DHT22;72587;50.746;8.246;2024-03-02T04:20:52;1.30;99.90
82836;DHT22;72587;50.746;8.246;2024-03-02T04:23:17;1.30;99.90
82836;DHT22;72587;50.746;8.246;2024-03-02T04:25:43;1.30;99.90
82836;DHT22;72587;50.746;8.246;2024-03-02T04:28:09;1.30;99.90
82836;DHT22;72587;50.746;8.246;2024-03-02T04:30:34;1.20;99.90
82836;DHT22;72587;50.746;8.246;2024-03-02T04:33:00;1.00;99.90
82836;DHT22;72587;50.746;8.246;2024-03-02T04:35:26;1.00;99.90
82836;DHT22;72587;50.746;8.246;2024-03-02T04:37:51;0.90;99.90
82836;DHT22;72587;50.746;8.246;2024-03-02T04:40:17;1.00;99.90
82836;DHT22;72587;50.746;8.246;2024-03-02T04:42:43;1.00;99.90
82836;DHT22;72587;50.746;8.246;2024-03-02T04:45:08;1.10;99.90
82836;DHT22;72587;50.746;8.246;2024-03-02T04:47:34;1.10;99.90
82836;DHT22;72587;50.746;8.246;2024-03-02T04:50:00;1.10;99.90
82836;DHT22;72587;50.746;8.246;2024-03-02T04:52:25;1.10;99.90
82836;DHT22;72587;50.746;8.246;2024-03-02T04:54:51;1.10;99.90
82836;DHT22;72587;50.746;8.246;2024-03-02T04:57:42;1.10;99.90
82836;DHT22;72587;50.746;8.246;2024-03-02T05:00:08;1.10;99.90
82836;DHT22;72587;50.746;8.246;2024-03-02T05:02:34;1.10;99.90
82836;DHT22;72587;50.746;8.246;2024-03-02T05:05:00;1.10;99.90
82836;DHT22;72587;50.746;8.246;2024-03-02T05:07:26;1.00;99.90
82836;DHT22;72587;50.746;8.246;2024-03-02T05:09:51;0.90;99.90
82836;DHT22;72587;50.746;8.246;2024-03-02T05:12:17;0.80;99.90
82836;DHT22;72587;50.746;8.246;2024-03-02T05:15:15;0.80;99.90
82836;DHT22;72587;50.746;8.246;2024-03-02T05:17:41;0.80;99.90
82836;DHT22;72587;50.746;8.246;2024-03-02T05:20:08;0.80;99.90
82836;DHT22;72587;50.746;8.246;2024-03-02T05:22:34;0.70;99.90
82836;DHT22;72587;50.746;8.246;2024-03-02T05:25:01;0.70;99.90
82836;DHT22;72587;50.746;8.246;2024-03-02T05:27:27;0.70;99.90
82836;DHT22;72587;50.746;8.246;2024-03-02T05:29:53;0.60;99.90
82836;DHT22;72587;50.746;8.246;2024-03-02T05:32:18;0.60;99.90
82836;DHT22;72587;50.746;8.246;2024-03-02T05:34:44;0.60;99.90
82836;DHT22;72587;50.746;8.246;2024-03-02T05:37:09;0.50;99.90
82836;DHT22;72587;50.746;8.246;2024-03-02T05:39:35;0.40;99.90
82836;DHT22;72587;50.746;8.246;2024-03-02T05:42:00;0.40;99.90
82836;DHT22;72587;50.746;8.246;2024-03-02T05:44:26;0.40;99.90
82836;DHT22;72587;50.746;8.246;2024-03-02T05:46:51;0.40;99.90
82836;DHT22;72587;50.746;8.246;2024-03-02T05:49:17;0.40;99.90
82836;DHT22;72587;50.746;8.246;2024-03-02T05:51:43;0.50;99.90
82836;DHT22;72587;50.746;8.246;2024-03-02T05:54:09;0.50;99.90
82836;DHT22;72587;50.746;8.246;2024-03-02T05:56:35;0.60;99.90
82836;DHT22;72587;50.746;8.246;2024-03-02T05:59:01;0.70;99.90
82836;DHT22;72587;50.746;8.246;2024-03-02T06:01:39;0.70;99.90
82836;DHT22;72587;50.746;8.246;2024-03-02T06:04:05;0.80;99.90
82836;DHT22;72587;50.746;8.246;2024-03-02T06:06:31;0.70;99.90
82836;DHT22;72587;50.746;8.246;2024-03-02T06:09:02;0.80;99.90
82836;DHT22;72587;50.746;8.246;2024-03-02T06:11:33;0.90;99.90
82836;DHT22;72587;50.746;8.246;2024-03-02T06:13:59;0.90;99.90
82836;DHT22;72587;50.746;8.246;2024-03-02T06:16:24;1.00;99.90
82836;DHT22;72587;50.746;8.246;2024-03-02T06:18:50;1.00;99.90
82836;DHT22;72587;50.746;8.246;2024-03-02T06:21:15;1.10;99.90
82836;DHT22;72587;50.746;8.246;2024-03-02T06:23:41;1.20;99.90
82836;DHT22;72587;50.746;8.246;2024-03-02T06:26:06;1.20;99.90
82836;DHT22;72587;50.746;8.246;2024-03-02T06:28:32;1.30;99.90
82836;DHT22;72587;50.746;8.246;2024-03-02T06:30:57;1.30;99.90
82836;DHT22;72587;50.746;8.246;2024-03-02T06:33:23;1.30;99.90
82836;DHT22;72587;50.746;8.246;2024-03-02T06:35:48;1.30;99.90
82836;DHT22;72587;50.746;8.246;2024-03-02T06:38:14;1.40;99.90
82836;DHT22;72587;50.746;8.246;2024-03-02T06:40:40;1.40;99.90
82836;DHT22;72587;50.746;8.246;2024-03-02T06:43:06;1.50;99.90
82836;DHT22;72587;50.746;8.246;2024-03-02T06:45:31;1.50;99.90
82836;DHT22;72587;50.746;8.246;2024-03-02T06:47:59;1.50;99.90
82836;DHT22;72587;50.746;8.246;2024-03-02T06:50:24;1.50;99.90
82836;DHT22;72587;50.746;8.246;2024-03-02T06:52:50;1.60;99.90
82836;DHT22;72587;50.746;8.246;2024-03-02T06:55:15;1.70;99.90
82836;DHT22;72587;50.746;8.246;2024-03-02T06:57:41;1.70;99.90
82836;DHT22;72587;50.746;8.246;2024-03-02T07:00:07;1.80;99.90
82836;DHT22;72587;50.746;8.246;2024-03-02T07:02:34;1.80;99.90
82836;DHT22;72587;50.746;8.246;2024-03-02T07:05:00;1.80;99.90
82836;DHT22;72587;50.746;8.246;2024-03-02T07:07:25;1.80;99.90
82836;DHT22;72587;50.746;8.246;2024-03-02T07:09:51;1.90;99.90
82836;DHT22;72587;50.746;8.246;2024-03-02T07:12:16;2.00;99.90
82836;DHT22;72587;50.746;8.246;2024-03-02T07:14:42;2.00;99.90
82836;DHT22;72587;50.746;8.246;2024-03-02T07:17:26;2.20;99.90
82836;DHT22;72587;50.746;8.246;2024-03-02T07:19:52;2.30;99.90
82836;DHT22;72587;50.746;8.246;2024-03-02T07:22:17;2.40;99.90
82836;DHT22;72587;50.746;8.246;2024-03-02T07:24:43;2.60;99.90
82836;DHT22;72587;50.746;8.246;2024-03-02T07:27:09;2.80;99.90
82836;DHT22;72587;50.746;8.246;2024-03-02T07:29:36;2.90;99.90
82836;DHT22;72587;50.746;8.246;2024-03-02T07:32:01;3.00;99.90
82836;DHT22;72587;50.746;8.246;2024-03-02T07:34:27;3.00;99.90
82836;DHT22;72587;50.746;8.246;2024-03-02T07:36:53;3.10;99.90
82836;DHT22;72587;50.746;8.246;2024-03-02T07:39:18;3.20;99.90
82836;DHT22;72587;50.746;8.246;2024-03-02T07:41:45;3.30;99.90
82836;DHT22;72587;50.746;8.246;2024-03-02T07:44:11;3.40;99.90
82836;DHT22;72587;50.746;8.246;2024-03-02T07:46:41;3.50;99.90
82836;DHT22;72587;50.746;8.246;2024-03-02T07:49:06;3.70;99.90
82836;DHT22;72587;50.746;8.246;2024-03-02T07:51:32;3.80;99.90
82836;DHT22;72587;50.746;8.246;2024-03-02T07:53:57;3.90;99.90
82836;DHT22;72587;50.746;8.246;2024-03-02T07:56:23;4.20;99.90
82836;DHT22;72587;50.746;8.246;2024-03-02T07:58:49;4.30;99.90
82836;DHT22;72587;50.746;8.246;2024-03-02T08:01:15;4.50;99.90
82836;DHT22;72587;50.746;8.246;2024-03-02T08:03:40;4.60;99.90
82836;DHT22;72587;50.746;8.246;2024-03-02T08:06:06;5.10;99.90
82836;DHT22;72587;50.746;8.246;2024-03-02T08:08:32;5.60;99.90
82836;DHT22;72587;50.746;8.246;2024-03-02T08:10:57;6.10;99.90
82836;DHT22;72587;50.746;8.246;2024-03-02T08:13:23;6.70;99.90
82836;DHT22;72587;50.746;8.246;2024-03-02T08:15:49;7.00;99.90
82836;DHT22;72587;50.746;8.246;2024-03-02T08:18:14;6.80;99.90
82836;DHT22;72587;50.746;8.246;2024-03-02T08:20:40;6.70;99.90
82836;DHT22;72587;50.746;8.246;2024-03-02T08:23:06;6.70;99.90
82836;DHT22;72587;50.746;8.246;2024-03-02T08:25:32;6.80;99.90
82836;DHT22;72587;50.746;8.246;2024-03-02T08:27:58;6.80;99.90
82836;DHT22;72587;50.746;8.246;2024-03-02T08:30:23;6.80;99.90
82836;DHT22;72587;50.746;8.246;2024-03-02T08:32:49;7.40;99.90
82836;DHT22;72587;50.746;8.246;2024-03-02T08:35:15;8.10;99.90
82836;DHT22;72587;50.746;8.246;2024-03-02T08:37:42;8.30;99.90
82836;DHT22;72587;50.746;8.246;2024-03-02T08:40:08;8.40;99.90
82836;DHT22;72587;50.746;8.246;2024-03-02T08:42:34;8.80;99.90
82836;DHT22;72587;50.746;8.246;2024-03-02T08:45:00;9.20;99.90
82836;DHT22;72587;50.746;8.246;2024-03-02T08:47:27;9.90;99.90
82836;DHT22;72587;50.746;8.246;2024-03-02T08:49:52;10.30;99.90
82836;DHT22;72587;50.746;8.246;2024-03-02T08:52:18;10.50;99.90
82836;DHT22;72587;50.746;8.246;2024-03-02T08:54:44;10.90;99.90
82836;DHT22;72587;50.746;8.246;2024-03-02T08:57:09;11.40;99.90
82836;DHT22;72587;50.746;8.246;2024-03-02T08:59:35;11.50;99.90
82836;DHT22;72587;50.746;8.246;2024-03-02T09:02:01;12.10;99.90
82836;DHT22;72587;50.746;8.246;2024-03-02T09:04:27;12.30;99.90
82836;DHT22;72587;50.746;8.246;2024-03-02T09:06:53;12.60;99.90
82836;DHT22;72587;50.746;8.246;2024-03-02T09:09:19;13.00;99.90
82836;DHT22;72587;50.746;8.246;2024-03-02T09:11:46;13.10;99.90
82836;DHT22;72587;50.746;8.246;2024-03-02T09:14:12;13.20;99.90
82836;DHT22;72587;50.746;8.246;2024-03-02T09:16:37;13.30;99.90
82836;DHT22;72587;50.746;8.246;2024-03-02T09:19:03;13.70;99.90
82836;DHT22;72587;50.746;8.246;2024-03-02T09:21:29;13.40;99.90
82836;DHT22;72587;50.746;8.246;2024-03-02T09:23:55;13.40;99.90
82836;DHT22;72587;50.746;8.246;2024-03-02T09:26:22;13.70;99.90
82836;DHT22;72587;50.746;8.246;2024-03-02T09:28:50;13.60;99.90
82836;DHT22;72587;50.746;8.246;2024-03-02T09:31:16;13.10;99.90
82836;DHT22;72587;50.746;8.246;2024-03-02T09:33:41;13.00;99.90
82836;DHT22;72587;50.746;8.246;2024-03-02T09:36:17;13.10;99.90
82836;DHT22;72587;50.746;8.246;2024-03-02T09:38:43;13.10;99.90
82836;DHT22;72587;50.746;8.246;2024-03-02T09:41:09;13.10;99.90
82836;DHT22;72587;50.746;8.246;2024-03-02T09:43:34;12.70;99.90
82836;DHT22;72587;50.746;8.246;2024-03-02T09:46:00;12.40;99.90
82836;DHT22;72587;50.746;8.246;2024-03-02T09:48:26;12.50;99.90
82836;DHT22;72587;50.746;8.246;2024-03-02T09:50:51;12.30;99.90
82836;DHT22;72587;50.746;8.246;2024-03-02T09:53:18;12.40;99.90
82836;DHT22;72587;50.746;8.246;2024-03-02T09:55:47;12.40;99.90
82836;DHT22;72587;50.746;8.246;2024-03-02T09:58:13;12.60;99.90
82836;DHT22;72587;50.746;8.246;2024-03-02T10:00:38;12.60;99.90
82836;DHT22;72587;50.746;8.246;2024-03-02T10:03:04;12.70;99.90
82836;DHT22;72587;50.746;8.246;2024-03-02T10:05:33;12.60;99.90
82836;DHT22;72587;50.746;8.246;2024-03-02T10:08:00;12.80;99.90
82836;DHT22;72587;50.746;8.246;2024-03-02T10:10:35;13.00;99.90
82836;DHT22;72587;50.746;8.246;2024-03-02T10:13:08;13.40;99.90
82836;DHT22;72587;50.746;8.246;2024-03-02T10:15:35;13.50;99.90
82836;DHT22;72587;50.746;8.246;2024-03-02T10:18:00;13.70;99.90
82836;DHT22;72587;50.746;8.246;2024-03-02T10:20:27;13.90;99.90
82836;DHT22;72587;50.746;8.246;2024-03-02T10:23:18;14.00;99.90
82836;DHT22;72587;50.746;8.246;2024-03-02T10:25:44;14.00;99.90
82836;DHT22;72587;50.746;8.246;2024-03-02T10:28:10;14.00;99.90
82836;DHT22;72587;50.746;8.246;2024-03-02T10:30:36;14.30;99.90
82836;DHT22;72587;50.746;8.246;2024-03-02T10:33:02;14.50;99.90
82836;DHT22;72587;50.746;8.246;2024-03-02T10:35:28;14.30;99.90
82836;DHT22;72587;50.746;8.246;2024-03-02T10:37:54;14.40;99.90
82836;DHT22;72587;50.746;8.246;2024-03-02T10:40:23;14.20;99.90
82836;DHT22;72587;50.746;8.246;2024-03-02T10:42:52;14.30;99.90
82836;DHT22;72587;50.746;8.246;2024-03-02T10:45:19;14.70;99.90
82836;DHT22;72587;50.746;8.246;2024-03-02T10:47:47;15.10;99.90
82836;DHT22;72587;50.746;8.246;2024-03-02T10:50:13;15.30;99.90
82836;DHT22;72587;50.746;8.246;2024-03-02T10:52:38;15.50;99.90
82836;DHT22;72587;50.746;8.246;2024-03-02T10:55:05;15.60;99.90
82836;DHT22;72587;50.746;8.246;2024-03-02T10:57:52;15.70;99.90
82836;DHT22;72587;50.746;8.246;2024-03-02T11:00:24;15.80;99.90
82836;DHT22;72587;50.746;8.246;2024-03-02T11:02:57;16.00;99.90
82836;DHT22;72587;50.746;8.246;2024-03-02T11:05:27;16.30;99.90
82836;DHT22;72587;50.746;8.246;2024-03-02T11:07:58;16.10;99.90
82836;DHT22;72587;50.746;8.246;2024-03-02T11:10:25;15.80;99.90
82836;DHT22;72587;50.746;8.246;2024-03-02T11:13:01;15.30;99.90
82836;DHT22;72587;50.746;8.246;2024-03-02T11:15:27;15.60;99.90
82836;DHT22;72587;50.746;8.246;2024-03-02T11:17:54;15.40;99.90
82836;DHT22;72587;50.746;8.246;2024-03-02T11:20:20;15.00;99.90
82836;DHT22;72587;50.746;8.246;2024-03-02T11:22:46;14.40;99.90
82836;DHT22;72587;50.746;8.246;2024-03-02T11:25:31;14.60;99.90
82836;DHT22;72587;50.746;8.246;2024-03-02T11:28:10;14.90;99.90
82836;DHT22;72587;50.746;8.246;2024-03-02T11:33:04;15.20;99.90
82836;DHT22;72587;50.746;8.246;2024-03-02T11:35:34;15.30;99.90
82836;DHT22;72587;50.746;8.246;2024-03-02T11:38:01;15.30;99.90
82836;DHT22;72587;50.746;8.246;2024-03-02T11:40:29;15.40;99.90
82836;DHT22;72587;50.746;8.246;2024-03-02T11:42:55;15.50;99.90
82836;DHT22;72587;50.746;8.246;2024-03-02T11:45:25;15.80;99.90
82836;DHT22;72587;50.746;8.246;2024-03-02T11:47:54;16.10;99.90
82836;DHT22;72587;50.746;8.246;2024-03-02T11:52:58;15.90;99.90
82836;DHT22;72587;50.746;8.246;2024-03-02T11:55:25;15.90;99.90
82836;DHT22;72587;50.746;8.246;2024-03-02T11:57:54;15.80;99.90
82836;DHT22;72587;50.746;8.246;2024-03-02T12:00:20;15.60;99.90
82836;DHT22;72587;50.746;8.246;2024-03-02T12:02:47;15.70;99.90
82836;DHT22;72587;50.746;8.246;2024-03-02T12:05:24;15.50;99.90
82836;DHT22;72587;50.746;8.246;2024-03-02T12:08:16;15.20;99.90
82836;DHT22;72587;50.746;8.246;2024-03-02T12:10:41;15.00;99.90
82836;DHT22;72587;50.746;8.246;2024-03-02T12:13:07;15.10;99.90
82836;DHT22;72587;50.746;8.246;2024-03-02T12:15:36;15.00;99.90
82836;DHT22;72587;50.746;8.246;2024-03-02T12:18:02;14.70;99.90
82836;DHT22;72587;50.746;8.246;2024-03-02T12:20:31;14.80;99.90
82836;DHT22;72587;50.746;8.246;2024-03-02T12:23:01;15.00;99.90
82836;DHT22;72587;50.746;8.246;2024-03-02T12:25:27;15.30;99.90
82836;DHT22;72587;50.746;8.246;2024-03-02T12:27:59;15.90;99.90
82836;DHT22;72587;50.746;8.246;2024-03-02T12:30:29;16.10;99.90
82836;DHT22;72587;50.746;8.246;2024-03-02T12:32:54;16.40;99.90
82836;DHT22;72587;50.746;8.246;2024-03-02T12:35:20;16.50;99.90
82836;DHT22;72587;50.746;8.246;2024-03-02T12:37:49;16.80;99.90
82836;DHT22;72587;50.746;8.246;2024-03-02T12:40:16;16.70;99.90
82836;DHT22;72587;50.746;8.246;2024-03-02T12:42:46;16.40;99.90
82836;DHT22;72587;50.746;8.246;2024-03-02T12:45:13;16.00;99.90
82836;DHT22;72587;50.746;8.246;2024-03-02T12:47:40;16.10;99.90
82836;DHT22;72587;50.746;8.246;2024-03-02T12:50:07;16.50;99.90
82836;DHT22;72587;50.746;8.246;2024-03-02T12:52:32;16.90;99.90
82836;DHT22;72587;50.746;8.246;2024-03-02T12:55:03;17.10;99.90
82836;DHT22;72587;50.746;8.246;2024-03-02T12:57:30;17.20;99.90
82836;DHT22;72587;50.746;8.246;2024-03-02T13:02:28;17.50;99.90
82836;DHT22;72587;50.746;8.246;2024-03-02T13:04:55;17.50;99.90
82836;DHT22;72587;50.746;8.246;2024-03-02T13:07:22;17.70;99.90
82836;DHT22;72587;50.746;8.246;2024-03-02T13:09:49;17.80;99.90
82836;DHT22;72587;50.746;8.246;2024-03-02T13:12:16;18.00;99.90
82836;DHT22;72587;50.746;8.246;2024-03-02T13:14:42;17.90;99.90
82836;DHT22;72587;50.746;8.246;2024-03-02T13:17:11;17.70;99.90
82836;DHT22;72587;50.746;8.246;2024-03-02T13:20:04;17.60;99.90
82836;DHT22;72587;50.746;8.246;2024-03-02T13:22:35;17.60;99.90
82836;DHT22;72587;50.746;8.246;2024-03-02T13:25:02;17.80;99.90
82836;DHT22;72587;50.746;8.246;2024-03-02T13:27:30;17.90;99.90
82836;DHT22;72587;50.746;8.246;2024-03-02T13:29:57;18.10;99.90
82836;DHT22;72587;50.746;8.246;2024-03-02T13:32:22;18.10;99.90
82836;DHT22;72587;50.746;8.246;2024-03-02T13:34:49;18.30;99.90
82836;DHT22;72587;50.746;8.246;2024-03-02T13:37:15;18.30;99.90
82836;DHT22;72587;50.746;8.246;2024-03-02T13:39:41;18.30;99.90
82836;DHT22;72587;50.746;8.246;2024-03-02T13:42:10;17.90;99.90
82836;DHT22;72587;50.746;8.246;2024-03-02T13:44:38;17.40;99.90
82836;DHT22;72587;50.746;8.246;2024-03-02T13:47:04;17.30;99.90
82836;DHT22;72587;50.746;8.246;2024-03-02T13:49:31;17.30;99.90
82836;DHT22;72587;50.746;8.246;2024-03-02T13:52:03;17.30;99.90
82836;DHT22;72587;50.746;8.246;2024-03-02T13:54:30;17.10;99.90
82836;DHT22;72587;50.746;8.246;2024-03-02T13:56:56;16.70;99.90
82836;DHT22;72587;50.746;8.246;2024-03-02T13:59:24;16.40;99.90
82836;DHT22;72587;50.746;8.246;2024-03-02T14:01:49;16.30;99.90
82836;DHT22;72587;50.746;8.246;2024-03-02T14:04:15;16.00;99.90
82836;DHT22;72587;50.746;8.246;2024-03-02T14:06:42;16.10;99.90
82836;DHT22;72587;50.746;8.246;2024-03-02T14:09:09;15.90;99.90
82836;DHT22;72587;50.746;8.246;2024-03-02T14:11:34;15.80;99.90
82836;DHT22;72587;50.746;8.246;2024-03-02T14:14:01;15.90;99.90
82836;DHT22;72587;50.746;8.246;2024-03-02T14:16:27;15.80;99.90
82836;DHT22;72587;50.746;8.246;2024-03-02T14:18:52;15.80;99.90
82836;DHT22;72587;50.746;8.246;2024-03-02T14:21:18;15.70;99.90
82836;DHT22;72587;50.746;8.246;2024-03-02T14:23:44;15.50;99.90
82836;DHT22;72587;50.746;8.246;2024-03-02T14:26:09;15.20;99.90
82836;DHT22;72587;50.746;8.246;2024-03-02T14:28:35;15.20;99.90
82836;DHT22;72587;50.746;8.246;2024-03-02T14:31:00;15.20;99.90
82836;DHT22;72587;50.746;8.246;2024-03-02T14:33:27;15.20;99.90
82836;DHT22;72587;50.746;8.246;2024-03-02T14:35:52;15.20;99.90
82836;DHT22;72587;50.746;8.246;2024-03-02T14:38:19;15.40;99.90
82836;DHT22;72587;50.746;8.246;2024-03-02T14:40:44;15.50;99.90
82836;DHT22;72587;50.746;8.246;2024-03-02T14:43:10;15.30;99.90
82836;DHT22;72587;50.746;8.246;2024-03-02T14:45:35;15.00;99.90
82836;DHT22;72587;50.746;8.246;2024-03-02T14:48:02;15.10;99.90
82836;DHT22;72587;50.746;8.246;2024-03-02T14:50:29;15.00;99.90
82836;DHT22;72587;50.746;8.246;2024-03-02T14:52:55;14.90;99.90
82836;DHT22;72587;50.746;8.246;2024-03-02T14:55:23;14.70;99.90
82836;DHT22;72587;50.746;8.246;2024-03-02T14:57:49;14.60;99.90
82836;DHT22;72587;50.746;8.246;2024-03-02T15:22:11;14.60;99.90
82836;DHT22;72587;50.746;8.246;2024-03-02T15:24:36;14.30;99.90
82836;DHT22;72587;50.746;8.246;2024-03-02T15:27:03;14.30;99.90
82836;DHT22;72587;50.746;8.246;2024-03-02T15:29:37;14.20;99.90
82836;DHT22;72587;50.746;8.246;2024-03-02T15:32:03;14.10;99.90
82836;DHT22;72587;50.746;8.246;2024-03-02T15:34:33;14.00;99.90
82836;DHT22;72587;50.746;8.246;2024-03-02T15:36:58;14.00;99.90
82836;DHT22;72587;50.746;8.246;2024-03-02T15:39:25;13.80;99.90
82836;DHT22;72587;50.746;8.246;2024-03-02T15:41:51;13.80;99.90
82836;DHT22;72587;50.746;8.246;2024-03-02T15:44:16;13.80;99.90
82836;DHT22;72587;50.746;8.246;2024-03-02T15:46:42;13.70;99.90
82836;DHT22;72587;50.746;8.246;2024-03-02T15:49:08;13.60;99.90
82836;DHT22;72587;50.746;8.246;2024-03-02T15:51:34;13.60;99.90
82836;DHT22;72587;50.746;8.246;2024-03-02T15:54:02;13.60;99.90
82836;DHT22;72587;50.746;8.246;2024-03-02T15:56:28;13.50;99.90
82836;DHT22;72587;50.746;8.246;2024-03-02T15:58:53;13.40;99.90
82836;DHT22;72587;50.746;8.246;2024-03-02T16:01:19;13.30;99.90
82836;DHT22;72587;50.746;8.246;2024-03-02T16:03:45;13.20;99.90
82836;DHT22;72587;50.746;8.246;2024-03-02T16:06:11;13.20;99.90
82836;DHT22;72587;50.746;8.246;2024-03-02T16:08:37;13.20;99.90
82836;DHT22;72587;50.746;8.246;2024-03-02T16:11:03;13.10;99.90
82836;DHT22;72587;50.746;8.246;2024-03-02T16:13:29;13.10;99.90